createdAt,value
2023-02-11T00:00:16.508Z,5.37
2023-02-11T00:02:46.078Z,5.41
2023-02-11T00:05:14.044Z,5.45
2023-02-11T00:07:40.600Z,5.49
2023-02-11T00:10:07.899Z,5.52
2023-02-11T00:12:36.105Z,5.55
2023-02-11T00:15:03.143Z,5.59
2023-02-11T00:17:29.646Z,5.60
2023-02-11T00:19:56.258Z,5.63
2023-02-11T00:22:22.966Z,5.64
2023-02-11T00:24:49.601Z,5.66
2023-02-11T00:27:16.270Z,5.69
2023-02-11T00:29:43.788Z,5.68
2023-02-11T00:32:10.546Z,5.71
2023-02-11T00:34:38.197Z,5.72
2023-02-11T00:37:05.947Z,5.74
2023-02-11T00:39:33.446Z,5.76
2023-02-11T00:42:00.298Z,5.78
2023-02-11T00:44:27.025Z,5.81
2023-02-11T00:46:53.804Z,5.82
2023-02-11T00:49:20.289Z,5.85
2023-02-11T00:51:48.385Z,5.87
2023-02-11T00:54:14.968Z,5.87
2023-02-11T00:56:41.472Z,5.90
2023-02-11T00:59:07.965Z,5.90
2023-02-11T01:01:34.979Z,5.92
2023-02-11T01:04:01.524Z,5.93
2023-02-11T01:06:27.983Z,5.93
2023-02-11T01:08:54.548Z,5.95
2023-02-11T01:11:22.109Z,5.94
2023-02-11T01:13:49.695Z,5.95
2023-02-11T01:16:16.758Z,5.93
2023-02-11T01:18:45.193Z,5.94
2023-02-11T01:21:11.836Z,5.94
2023-02-11T01:23:38.416Z,5.94
2023-02-11T01:26:05.346Z,5.94
2023-02-11T01:28:32.123Z,5.95
2023-02-11T01:31:01.019Z,5.95
2023-02-11T01:33:27.635Z,5.97
2023-02-11T01:35:54.131Z,5.97
2023-02-11T01:38:23.901Z,5.98
2023-02-11T01:40:56.010Z,5.99
2023-02-11T01:43:24.153Z,5.99
2023-02-11T01:45:57.872Z,6.00
2023-02-11T01:48:36.791Z,6.01
2023-02-11T01:51:18.208Z,6.01
2023-02-11T01:54:05.873Z,6.02
2023-02-11T01:56:55.678Z,6.01
2023-02-11T01:59:32.156Z,6.02
2023-02-11T02:02:02.736Z,6.03
2023-02-11T02:04:35.852Z,6.02
2023-02-11T02:07:11.186Z,6.02
2023-02-11T02:09:49.279Z,6.02
2023-02-11T02:12:15.765Z,6.02
2023-02-11T02:14:42.924Z,6.02
2023-02-11T02:17:37.800Z,6.00
2023-02-11T02:20:19.416Z,6.01
2023-02-11T02:23:04.275Z,5.99
2023-02-11T02:26:00.227Z,5.99
2023-02-11T02:29:01.461Z,5.98
2023-02-11T02:31:54.743Z,5.97
2023-02-11T02:34:36.470Z,5.98
2023-02-11T02:37:10.509Z,5.98
2023-02-11T02:39:37.581Z,5.98
2023-02-11T02:42:05.065Z,5.98
2023-02-11T02:44:32.297Z,5.98
2023-02-11T02:46:58.963Z,5.98
2023-02-11T02:49:25.488Z,5.99
2023-02-11T02:52:34.427Z,6.00
2023-02-11T02:55:12.835Z,5.99
2023-02-11T02:58:14.546Z,5.98
2023-02-11T03:00:51.675Z,5.99
2023-02-11T03:03:36.171Z,6.00
2023-02-11T03:06:11.234Z,6.00
2023-02-11T03:08:53.451Z,6.01
2023-02-11T03:11:21.852Z,6.00
2023-02-11T03:13:50.488Z,6.00
2023-02-11T03:16:25.587Z,6.00
2023-02-11T03:19:18.054Z,6.03
2023-02-11T03:21:47.024Z,6.04
2023-02-11T03:24:38.575Z,6.03
2023-02-11T03:27:40.520Z,6.04
2023-02-11T03:30:28.126Z,6.07
2023-02-11T03:32:59.464Z,6.07
2023-02-11T03:35:41.693Z,6.09
2023-02-11T03:38:15.934Z,6.08
2023-02-11T03:40:45.617Z,6.09
2023-02-11T03:43:19.246Z,6.10
2023-02-11T03:45:51.568Z,6.11
2023-02-11T03:48:40.760Z,6.11
2023-02-11T03:51:10.757Z,6.11
2023-02-11T03:53:40.399Z,6.12
2023-02-11T03:56:11.163Z,6.12
2023-02-11T03:58:37.622Z,6.12
2023-02-11T04:01:05.143Z,6.13
2023-02-11T04:03:33.058Z,6.11
2023-02-11T04:05:59.625Z,6.11
2023-02-11T04:08:26.086Z,6.12
2023-02-11T04:10:52.544Z,6.13
2023-02-11T04:13:19.212Z,6.12
2023-02-11T04:15:48.453Z,6.12
2023-02-11T04:18:15.333Z,6.12
2023-02-11T04:20:42.770Z,6.13
2023-02-11T04:23:10.175Z,6.12
2023-02-11T04:25:36.628Z,6.13
2023-02-11T04:28:03.648Z,6.13
2023-02-11T04:30:30.488Z,6.12
2023-02-11T04:32:58.385Z,6.12
2023-02-11T04:35:25.044Z,6.12
2023-02-11T04:37:51.564Z,6.12
2023-02-11T04:40:18.083Z,6.11
2023-02-11T04:42:44.528Z,6.11
2023-02-11T04:45:11.057Z,6.08
2023-02-11T04:47:38.019Z,6.09
2023-02-11T04:50:05.259Z,6.07
2023-02-11T04:52:31.755Z,6.06
2023-02-11T04:54:58.220Z,6.05
2023-02-11T04:57:24.684Z,6.04
2023-02-11T04:59:51.422Z,6.04
2023-02-11T05:02:18.035Z,6.03
2023-02-11T05:04:44.601Z,5.99
2023-02-11T05:07:11.212Z,5.98
2023-02-11T05:09:37.744Z,5.96
2023-02-11T05:12:04.364Z,5.94
2023-02-11T05:14:30.884Z,5.91
2023-02-11T05:16:57.390Z,5.90
2023-02-11T05:19:23.932Z,5.89
2023-02-11T05:22:01.712Z,5.89
2023-02-11T05:24:31.042Z,5.91
2023-02-11T05:26:57.585Z,5.92
2023-02-11T05:29:24.408Z,5.93
2023-02-11T05:31:50.948Z,5.95
2023-02-11T05:34:17.407Z,5.96
2023-02-11T05:36:43.921Z,5.96
2023-02-11T05:39:10.414Z,5.99
2023-02-11T05:41:38.048Z,5.99
2023-02-11T05:44:04.609Z,6.00
2023-02-11T05:46:31.269Z,6.02
2023-02-11T05:48:58.444Z,6.02
2023-02-11T05:51:25.357Z,6.04
2023-02-11T05:53:51.972Z,6.06
2023-02-11T05:56:18.583Z,6.05
2023-02-11T05:58:45.033Z,6.06
2023-02-11T06:01:11.571Z,6.06
2023-02-11T06:03:38.178Z,6.07
2023-02-11T06:06:05.063Z,6.07
2023-02-11T06:08:31.583Z,6.07
2023-02-11T06:10:58.044Z,6.08
2023-02-11T06:13:24.525Z,6.09
2023-02-11T06:16:01.215Z,6.10
2023-02-11T06:18:28.136Z,6.12
2023-02-11T06:20:55.118Z,6.14
2023-02-11T06:23:21.891Z,6.15
2023-02-11T06:25:48.978Z,6.15
2023-02-11T06:28:16.406Z,6.17
2023-02-11T06:30:43.007Z,6.17
2023-02-11T06:33:09.811Z,6.18
2023-02-11T06:35:38.810Z,6.19
2023-02-11T06:38:05.276Z,6.20
2023-02-11T06:40:31.738Z,6.21
2023-02-11T06:42:58.245Z,6.22
2023-02-11T06:45:24.721Z,6.22
2023-02-11T06:47:51.545Z,6.25
2023-02-11T06:50:18.093Z,6.29
2023-02-11T06:52:44.783Z,6.30
2023-02-11T06:55:11.323Z,6.32
2023-02-11T06:57:38.973Z,6.34
2023-02-11T07:00:06.137Z,6.37
2023-02-11T07:02:33.842Z,6.40
2023-02-11T07:05:00.372Z,6.42
2023-02-11T07:07:27.781Z,6.45
2023-02-11T07:09:54.276Z,6.47
2023-02-11T07:12:20.784Z,6.51
2023-02-11T07:14:47.261Z,6.52
2023-02-11T07:17:13.706Z,6.53
2023-02-11T07:19:40.162Z,6.55
2023-02-11T07:22:06.704Z,6.55
2023-02-11T07:24:33.246Z,6.56
2023-02-11T07:26:59.695Z,6.58
2023-02-11T07:29:26.271Z,6.61
2023-02-11T07:31:53.820Z,6.62
2023-02-11T07:34:20.651Z,6.64
2023-02-11T07:36:48.930Z,6.65
2023-02-11T07:39:15.831Z,6.69
2023-02-11T07:41:43.119Z,6.71
2023-02-11T07:44:09.694Z,6.71
2023-02-11T07:46:36.274Z,6.71
2023-02-11T07:49:02.896Z,6.74
2023-02-11T07:51:31.274Z,6.76
2023-02-11T07:53:59.841Z,6.78
2023-02-11T07:56:26.909Z,6.79
2023-02-11T07:58:54.884Z,6.81
2023-02-11T08:01:25.377Z,6.83
2023-02-11T08:03:52.910Z,6.85
2023-02-11T08:06:21.229Z,6.85
2023-02-11T08:08:47.952Z,6.87
2023-02-11T08:11:26.333Z,6.87
2023-02-11T08:13:54.057Z,6.89
2023-02-11T08:16:26.179Z,6.90
2023-02-11T08:18:55.567Z,6.93
2023-02-11T08:21:22.082Z,6.96
2023-02-11T08:23:49.750Z,6.96
2023-02-11T08:26:21.540Z,6.98
2023-02-11T08:28:49.506Z,6.99
2023-02-11T08:31:21.653Z,6.97
2023-02-11T08:33:48.480Z,6.96
2023-02-11T08:36:24.738Z,6.98
2023-02-11T08:38:51.688Z,6.98
2023-02-11T08:41:18.368Z,6.98
2023-02-11T08:43:45.798Z,6.99
2023-02-11T08:46:16.007Z,7.01
2023-02-11T08:48:43.444Z,7.03
2023-02-11T08:51:13.927Z,7.02
2023-02-11T08:53:40.420Z,7.04
2023-02-11T08:56:07.489Z,7.04
2023-02-11T08:58:33.949Z,7.06
2023-02-11T09:01:04.898Z,7.05
2023-02-11T09:03:31.431Z,7.09
2023-02-11T09:05:57.983Z,7.10
2023-02-11T09:08:25.849Z,7.13
2023-02-11T09:10:52.669Z,7.15
2023-02-11T09:13:19.273Z,7.15
2023-02-11T09:15:46.789Z,7.17
2023-02-11T09:18:13.510Z,7.16
2023-02-11T09:20:40.454Z,7.14
2023-02-11T09:23:07.067Z,7.14
2023-02-11T09:25:33.581Z,7.13
2023-02-11T09:28:00.872Z,7.15
2023-02-11T09:30:27.400Z,7.12
2023-02-11T09:32:54.010Z,7.14
2023-02-11T09:35:20.472Z,7.13
2023-02-11T09:37:46.929Z,7.13
2023-02-11T09:40:15.436Z,7.14
2023-02-11T09:42:51.043Z,7.13
2023-02-11T09:45:20.777Z,7.15
2023-02-11T09:47:55.289Z,7.19
2023-02-11T09:50:29.257Z,7.13
2023-02-11T09:53:03.490Z,7.13
2023-02-11T09:55:37.776Z,7.15
2023-02-11T09:58:11.861Z,7.16
2023-02-11T10:00:47.292Z,7.13
2023-02-11T10:03:20.279Z,7.11
2023-02-11T10:05:53.873Z,7.17
2023-02-11T10:08:32.804Z,7.18
2023-02-11T10:11:08.098Z,7.13
2023-02-11T10:13:54.865Z,7.13
2023-02-11T10:17:02.995Z,7.15
2023-02-11T10:19:32.520Z,7.16
2023-02-11T10:22:31.239Z,7.16
2023-02-11T10:25:00.321Z,7.14
2023-02-11T10:27:32.044Z,7.13
2023-02-11T10:30:32.467Z,7.12
2023-02-11T10:33:17.484Z,7.12
2023-02-11T10:35:46.072Z,7.18
2023-02-11T10:38:12.806Z,7.19
2023-02-11T10:40:39.317Z,7.21
2023-02-11T10:43:13.459Z,7.26
2023-02-11T10:45:45.133Z,7.24
2023-02-11T10:48:36.415Z,7.34
2023-02-11T10:51:15.171Z,7.27
2023-02-11T10:53:42.161Z,7.26
2023-02-11T10:56:12.910Z,7.27
2023-02-11T10:58:54.280Z,7.31
2023-02-11T11:01:24.893Z,7.33
2023-02-11T11:03:52.934Z,7.33
2023-02-11T11:06:31.769Z,7.34
2023-02-11T11:08:59.323Z,7.31
2023-02-11T11:11:27.174Z,7.28
2023-02-11T11:13:53.618Z,7.35
2023-02-11T11:16:30.961Z,7.42
2023-02-11T11:19:06.676Z,7.43
2023-02-11T11:21:45.488Z,7.40
2023-02-11T11:24:27.851Z,7.40
2023-02-11T11:26:58.154Z,7.45
2023-02-11T11:29:38.501Z,7.47
2023-02-11T11:32:13.351Z,7.48
2023-02-11T11:34:49.034Z,7.53
2023-02-11T11:37:27.981Z,7.55
2023-02-11T11:40:07.760Z,7.54
2023-02-11T11:42:36.827Z,7.56
2023-02-11T11:45:15.180Z,7.57
2023-02-11T11:47:52.735Z,7.61
2023-02-11T11:50:34.864Z,7.67
2023-02-11T11:53:05.257Z,7.64
2023-02-11T11:55:42.180Z,7.70
2023-02-11T11:58:21.321Z,7.74
2023-02-11T12:01:04.239Z,7.79
2023-02-11T12:03:49.270Z,7.85
2023-02-11T12:06:26.580Z,7.90
2023-02-11T12:09:01.860Z,7.97
2023-02-11T12:11:38.044Z,8.03
2023-02-11T12:14:52.544Z,8.08
2023-02-11T12:17:46.089Z,8.10
2023-02-11T12:20:39.979Z,8.19
2023-02-11T12:23:34.223Z,8.24
2023-02-11T12:26:18.117Z,8.24
2023-02-11T12:29:20.509Z,8.25
2023-02-11T12:32:01.944Z,8.31
2023-02-11T12:34:59.682Z,8.35
2023-02-11T12:37:58.244Z,8.37
2023-02-11T12:40:45.099Z,8.41
2023-02-11T12:43:23.056Z,8.46
2023-02-11T12:46:14.599Z,8.48
2023-02-11T12:48:50.324Z,8.48
2023-02-11T12:51:32.438Z,8.52
2023-02-11T12:54:06.983Z,8.47
2023-02-11T12:56:42.592Z,8.49
2023-02-11T12:59:17.143Z,8.53
2023-02-11T13:01:44.871Z,8.55
2023-02-11T13:04:26.863Z,8.58
2023-02-11T13:07:02.443Z,8.62
2023-02-11T13:09:39.048Z,8.64
2023-02-11T13:12:25.216Z,8.69
2023-02-11T13:14:56.797Z,8.75
2023-02-11T13:17:35.362Z,8.71
2023-02-11T13:20:18.160Z,8.71
2023-02-11T13:22:57.874Z,8.70
2023-02-11T13:25:41.559Z,8.74
2023-02-11T13:28:36.540Z,8.74
2023-02-11T13:31:07.362Z,8.71
2023-02-11T13:33:35.443Z,8.65
2023-02-11T13:36:04.492Z,8.67
2023-02-11T13:38:34.110Z,8.64
2023-02-11T13:41:17.867Z,8.62
2023-02-11T13:43:45.254Z,8.57
2023-02-11T13:46:14.553Z,8.53
2023-02-11T13:48:53.091Z,8.52
2023-02-11T13:51:37.320Z,8.48
2023-02-11T13:54:06.089Z,8.49
2023-02-11T13:56:38.434Z,8.53
2023-02-11T13:59:25.242Z,8.55
2023-02-11T14:02:10.553Z,8.52
2023-02-11T14:04:56.173Z,8.56
2023-02-11T14:07:50.105Z,8.56
2023-02-11T14:10:42.656Z,8.58
2023-02-11T14:13:30.231Z,8.60
2023-02-11T14:16:13.493Z,8.60
2023-02-11T14:18:59.523Z,8.59
2023-02-11T14:21:26.503Z,8.57
2023-02-11T14:24:14.429Z,8.56
2023-02-11T14:26:54.664Z,8.60
2023-02-11T14:29:30.663Z,8.59
2023-02-11T14:32:22.069Z,8.56
2023-02-11T14:35:04.603Z,8.55
2023-02-11T14:37:50.909Z,8.53
2023-02-11T14:40:35.999Z,8.51
2023-02-11T14:43:13.446Z,8.50
2023-02-11T14:45:40.446Z,8.51
2023-02-11T14:48:18.937Z,8.48
2023-02-11T14:50:53.669Z,8.49
2023-02-11T14:53:24.089Z,8.49
2023-02-11T14:55:54.176Z,8.50
2023-02-11T14:58:24.568Z,8.50
2023-02-11T15:00:59.355Z,8.49
2023-02-11T15:03:47.796Z,8.47
2023-02-11T15:06:20.022Z,8.48
2023-02-11T15:08:52.900Z,8.48
2023-02-11T15:11:22.579Z,8.49
2023-02-11T15:13:50.576Z,8.50
2023-02-11T15:16:21.865Z,8.51
2023-02-11T15:18:52.973Z,8.51
2023-02-11T15:21:35.426Z,8.51
2023-02-11T15:24:21.687Z,8.50
2023-02-11T15:27:15.484Z,8.48
2023-02-11T15:29:49.332Z,8.49
2023-02-11T15:32:18.003Z,8.49
2023-02-11T15:34:49.672Z,8.47
2023-02-11T15:37:29.745Z,8.47
2023-02-11T15:40:09.711Z,8.46
2023-02-11T15:42:51.895Z,8.45
2023-02-11T15:45:50.064Z,8.45
2023-02-11T15:48:21.968Z,8.46
2023-02-11T15:50:55.477Z,8.47
2023-02-11T15:53:31.362Z,8.48
2023-02-11T15:56:08.054Z,8.45
2023-02-11T15:58:40.396Z,8.43
2023-02-11T16:01:08.665Z,8.41
2023-02-11T16:03:35.673Z,8.39
2023-02-11T16:06:20.321Z,8.36
2023-02-11T16:09:15.802Z,8.31
2023-02-11T16:11:48.183Z,8.30
2023-02-11T16:14:34.661Z,8.30
2023-02-11T16:17:07.587Z,8.29
2023-02-11T16:19:35.533Z,8.29
2023-02-11T16:22:16.554Z,8.28
2023-02-11T16:24:47.600Z,8.28
2023-02-11T16:27:24.403Z,8.28
2023-02-11T16:29:51.980Z,8.31
2023-02-11T16:32:26.263Z,8.33
2023-02-11T16:34:55.192Z,8.34
2023-02-11T16:37:21.656Z,8.36
2023-02-11T16:39:48.117Z,8.36
2023-02-11T16:42:15.062Z,8.38
2023-02-11T16:44:41.581Z,8.39
2023-02-11T16:47:19.391Z,8.40
2023-02-11T16:49:46.022Z,8.41
2023-02-11T16:52:15.397Z,8.40
2023-02-11T16:54:42.526Z,8.42
2023-02-11T16:57:20.922Z,8.42
2023-02-11T16:59:47.912Z,8.44
2023-02-11T17:02:26.382Z,8.44
2023-02-11T17:04:54.930Z,8.42
2023-02-11T17:07:22.374Z,8.41
2023-02-11T17:09:48.936Z,8.40
2023-02-11T17:12:15.655Z,8.41
2023-02-11T17:14:42.294Z,8.41
2023-02-11T17:17:09.908Z,8.38
2023-02-11T17:19:37.060Z,8.36
2023-02-11T17:22:04.077Z,8.33
2023-02-11T17:24:33.405Z,8.32
2023-02-11T17:27:00.664Z,8.28
2023-02-11T17:29:27.315Z,8.28
2023-02-11T17:31:55.791Z,8.26
2023-02-11T17:34:23.824Z,8.26
2023-02-11T17:36:51.759Z,8.28
2023-02-11T17:39:23.211Z,8.30
2023-02-11T17:41:49.722Z,8.33
2023-02-11T17:44:16.656Z,8.36
2023-02-11T17:46:43.398Z,8.35
2023-02-11T17:49:11.664Z,8.34
2023-02-11T17:51:39.854Z,8.33
2023-02-11T17:54:10.259Z,8.31
2023-02-11T17:56:37.498Z,8.32
2023-02-11T17:59:05.288Z,8.33
2023-02-11T18:01:33.320Z,8.34
2023-02-11T18:04:00.448Z,8.32
2023-02-11T18:06:29.034Z,8.32
2023-02-11T18:08:58.006Z,8.32
2023-02-11T18:11:25.994Z,8.33
2023-02-11T18:13:54.637Z,8.33
2023-02-11T18:16:23.837Z,8.33
2023-02-11T18:18:50.882Z,8.30
2023-02-11T18:21:19.873Z,8.28
2023-02-11T18:23:47.346Z,8.29
2023-02-11T18:26:15.030Z,8.28
2023-02-11T18:28:45.821Z,8.27
2023-02-11T18:31:13.797Z,8.27
2023-02-11T18:33:43.412Z,8.24
2023-02-11T18:36:13.717Z,8.24
2023-02-11T18:38:41.704Z,8.23
2023-02-11T18:41:08.342Z,8.22
2023-02-11T18:43:35.654Z,8.22
2023-02-11T18:46:07.399Z,8.25
2023-02-11T18:48:34.177Z,8.23
2023-02-11T18:51:00.763Z,8.24
2023-02-11T18:53:27.358Z,8.21
2023-02-11T18:55:54.436Z,8.21
2023-02-11T18:58:21.666Z,8.20
2023-02-11T19:00:49.326Z,8.21
2023-02-11T19:03:16.426Z,8.18
2023-02-11T19:05:45.529Z,8.20
2023-02-11T19:08:13.228Z,8.17
2023-02-11T19:10:44.440Z,8.15
2023-02-11T19:13:11.491Z,8.15
2023-02-11T19:15:43.196Z,8.15
2023-02-11T19:18:10.728Z,8.14
2023-02-11T19:20:41.876Z,8.13
2023-02-11T19:23:08.814Z,8.15
2023-02-11T19:25:35.601Z,8.16
2023-02-11T19:28:03.411Z,8.16
2023-02-11T19:30:30.081Z,8.16
2023-02-11T19:32:57.683Z,8.16
2023-02-11T19:35:25.780Z,8.14
2023-02-11T19:37:52.683Z,8.14
2023-02-11T19:40:21.174Z,8.15
2023-02-11T19:42:48.150Z,8.12
2023-02-11T19:45:15.074Z,8.13
2023-02-11T19:47:41.676Z,8.13
2023-02-11T19:50:10.457Z,8.13
2023-02-11T19:52:40.836Z,8.11
2023-02-11T19:55:08.336Z,8.11
2023-02-11T19:57:36.478Z,8.11
2023-02-11T20:00:05.180Z,8.12
2023-02-11T20:02:39.994Z,8.13
2023-02-11T20:05:06.757Z,8.15
2023-02-11T20:07:33.375Z,8.15
2023-02-11T20:10:00.055Z,8.17
2023-02-11T20:12:26.666Z,8.16
2023-02-11T20:14:53.386Z,8.19
2023-02-11T20:17:19.923Z,8.19
2023-02-11T20:19:48.813Z,8.17
2023-02-11T20:22:15.367Z,8.18
2023-02-11T20:24:42.084Z,8.19
2023-02-11T20:27:11.413Z,8.20
2023-02-11T20:29:39.403Z,8.20
2023-02-11T20:32:08.658Z,8.20
2023-02-11T20:34:35.407Z,8.21
2023-02-11T20:37:02.969Z,8.21
2023-02-11T20:39:29.830Z,8.19
2023-02-11T20:41:57.514Z,8.21
2023-02-11T20:44:24.497Z,8.23
2023-02-11T20:46:54.461Z,8.21
2023-02-11T20:49:23.688Z,8.22
2023-02-11T20:51:51.535Z,8.24
2023-02-11T20:54:20.281Z,8.26
2023-02-11T20:56:48.534Z,8.28
2023-02-11T20:59:16.912Z,8.31
2023-02-11T21:01:47.178Z,8.33
2023-02-11T21:04:17.505Z,8.33
2023-02-11T21:06:50.580Z,8.33
2023-02-11T21:09:23.230Z,8.33
2023-02-11T21:11:51.605Z,8.33
2023-02-11T21:14:19.101Z,8.32
2023-02-11T21:16:47.348Z,8.31
2023-02-11T21:19:14.268Z,8.29
2023-02-11T21:21:40.904Z,8.29
2023-02-11T21:24:09.564Z,8.29
2023-02-11T21:26:37.183Z,8.26
2023-02-11T21:29:08.951Z,8.24
2023-02-11T21:31:36.573Z,8.24
2023-02-11T21:34:03.892Z,8.24
2023-02-11T21:36:31.277Z,8.23
2023-02-11T21:38:58.814Z,8.22
2023-02-11T21:41:27.275Z,8.24
2023-02-11T21:43:54.090Z,8.25
2023-02-11T21:46:21.308Z,8.25
2023-02-11T21:48:48.781Z,8.26
2023-02-11T21:51:24.198Z,8.26
2023-02-11T21:53:56.360Z,8.27
2023-02-11T21:56:28.083Z,8.27
2023-02-11T21:58:56.271Z,8.28
2023-02-11T22:01:25.834Z,8.28
2023-02-11T22:03:52.812Z,8.27
2023-02-11T22:06:22.995Z,8.28
2023-02-11T22:08:50.232Z,8.27
2023-02-11T22:11:16.744Z,8.26
2023-02-11T22:13:43.573Z,8.27
2023-02-11T22:16:13.049Z,8.27
2023-02-11T22:18:41.034Z,8.26
2023-02-11T22:21:12.578Z,8.25
2023-02-11T22:23:39.837Z,8.24
2023-02-11T22:26:10.790Z,8.24
2023-02-11T22:28:40.538Z,8.23
2023-02-11T22:31:11.274Z,8.22
2023-02-11T22:33:38.302Z,8.24
2023-02-11T22:36:07.985Z,8.20
2023-02-11T22:38:34.925Z,8.20
2023-02-11T22:41:06.434Z,8.19
2023-02-11T22:43:33.386Z,8.17
2023-02-11T22:46:01.477Z,8.18
2023-02-11T22:48:28.375Z,8.19
2023-02-11T22:50:54.841Z,8.17
2023-02-11T22:53:22.631Z,8.17
2023-02-11T22:55:49.185Z,8.16
2023-02-11T22:58:16.278Z,8.17
2023-02-11T23:00:42.758Z,8.16
2023-02-11T23:03:15.207Z,8.15
2023-02-11T23:05:42.603Z,8.15
2023-02-11T23:08:12.033Z,8.14
2023-02-11T23:10:39.942Z,8.15
2023-02-11T23:13:07.620Z,8.14
2023-02-11T23:15:36.441Z,8.14
2023-02-11T23:18:02.951Z,8.14
2023-02-11T23:20:29.436Z,8.15
2023-02-11T23:22:56.505Z,8.13
2023-02-11T23:25:22.963Z,8.13
2023-02-11T23:27:49.409Z,8.14
2023-02-11T23:30:16.670Z,8.15
2023-02-11T23:32:45.745Z,8.13
2023-02-11T23:35:18.626Z,8.13
2023-02-11T23:37:45.862Z,8.10
2023-02-11T23:40:12.923Z,8.09
2023-02-11T23:42:40.063Z,8.07
2023-02-11T23:45:07.988Z,8.09
2023-02-11T23:47:34.599Z,8.05
2023-02-11T23:50:01.090Z,8.04
2023-02-11T23:52:27.619Z,8.02
2023-02-11T23:54:54.193Z,8.01
2023-02-11T23:57:20.701Z,8.02
2023-02-11T23:59:49.990Z,8.01
